sensor_id;sensor_type;location;lat;lon;timestamp;temperature;humidity
16479;DHT22;8350;52.316;10.530;2023-06-24T00:02:01;14.90;99.90
16479;DHT22;8350;52.316;10.530;2023-06-24T00:04:28;14.90;99.90
16479;DHT22;8350;52.316;10.530;2023-06-24T00:06:55;14.80;99.90
16479;DHT22;8350;52.316;10.530;2023-06-24T00:09:28;14.80;99.90
16479;DHT22;8350;52.316;10.530;2023-06-24T00:11:55;14.80;99.90
16479;DHT22;8350;52.316;10.530;2023-06-24T00:14:23;14.70;99.90
16479;DHT22;8350;52.316;10.530;2023-06-24T00:16:51;14.70;99.90
16479;DHT22;8350;52.316;10.530;2023-06-24T00:19:20;14.70;99.90
16479;DHT22;8350;52.316;10.530;2023-06-24T00:21:51;14.70;99.90
16479;DHT22;8350;52.316;10.530;2023-06-24T00:24:18;14.60;99.90
16479;DHT22;8350;52.316;10.530;2023-06-24T00:26:47;14.60;99.90
16479;DHT22;8350;52.316;10.530;2023-06-24T00:29:14;14.60;99.90
16479;DHT22;8350;52.316;10.530;2023-06-24T00:31:41;14.50;99.90
16479;DHT22;8350;52.316;10.530;2023-06-24T00:34:08;14.50;99.90
16479;DHT22;8350;52.316;10.530;2023-06-24T00:36:35;14.50;99.90
16479;DHT22;8350;52.316;10.530;2023-06-24T00:39:03;14.40;99.90
16479;DHT22;8350;52.316;10.530;2023-06-24T00:41:31;14.30;99.90
16479;DHT22;8350;52.316;10.530;2023-06-24T00:44:00;14.30;99.90
16479;DHT22;8350;52.316;10.530;2023-06-24T00:46:28;14.30;99.90
16479;DHT22;8350;52.316;10.530;2023-06-24T00:48:58;14.30;99.90
16479;DHT22;8350;52.316;10.530;2023-06-24T00:51:26;14.30;99.90
16479;DHT22;8350;52.316;10.530;2023-06-24T00:53:56;14.30;99.90
16479;DHT22;8350;52.316;10.530;2023-06-24T00:56:27;14.20;99.90
16479;DHT22;8350;52.316;10.530;2023-06-24T00:58:56;14.20;99.90
16479;DHT22;8350;52.316;10.530;2023-06-24T01:01:25;14.20;99.90
16479;DHT22;8350;52.316;10.530;2023-06-24T01:03:53;14.20;99.90
16479;DHT22;8350;52.316;10.530;2023-06-24T01:06:20;14.10;99.90
16479;DHT22;8350;52.316;10.530;2023-06-24T01:08:48;14.10;99.90
16479;DHT22;8350;52.316;10.530;2023-06-24T01:11:16;14.00;99.90
16479;DHT22;8350;52.316;10.530;2023-06-24T01:13:43;14.00;99.90
16479;DHT22;8350;52.316;10.530;2023-06-24T01:16:16;14.00;99.90
16479;DHT22;8350;52.316;10.530;2023-06-24T01:18:52;14.00;99.90
16479;DHT22;8350;52.316;10.530;2023-06-24T01:21:31;14.00;99.90
16479;DHT22;8350;52.316;10.530;2023-06-24T01:24:21;14.00;99.90
16479;DHT22;8350;52.316;10.530;2023-06-24T01:27:16;13.90;99.90
16479;DHT22;8350;52.316;10.530;2023-06-24T01:30:13;13.80;99.90
16479;DHT22;8350;52.316;10.530;2023-06-24T01:32:46;13.80;99.90
16479;DHT22;8350;52.316;10.530;2023-06-24T01:35:18;13.80;99.90
16479;DHT22;8350;52.316;10.530;2023-06-24T01:37:50;13.80;99.90
16479;DHT22;8350;52.316;10.530;2023-06-24T01:40:23;13.70;99.90
16479;DHT22;8350;52.316;10.530;2023-06-24T01:42:54;13.70;99.90
16479;DHT22;8350;52.316;10.530;2023-06-24T01:45:26;13.70;99.90
16479;DHT22;8350;52.316;10.530;2023-06-24T01:48:00;13.60;99.90
16479;DHT22;8350;52.316;10.530;2023-06-24T01:50:33;13.60;99.90
16479;DHT22;8350;52.316;10.530;2023-06-24T01:53:01;13.50;99.90
16479;DHT22;8350;52.316;10.530;2023-06-24T01:55:32;13.50;99.90
16479;DHT22;8350;52.316;10.530;2023-06-24T01:58:05;13.50;99.90
16479;DHT22;8350;52.316;10.530;2023-06-24T02:00:34;13.50;99.90
16479;DHT22;8350;52.316;10.530;2023-06-24T02:03:04;13.50;99.90
16479;DHT22;8350;52.316;10.530;2023-06-24T02:05:32;13.50;99.90
16479;DHT22;8350;52.316;10.530;2023-06-24T02:08:00;13.40;99.90
16479;DHT22;8350;52.316;10.530;2023-06-24T02:10:29;13.40;99.90
16479;DHT22;8350;52.316;10.530;2023-06-24T02:12:57;13.30;99.90
16479;DHT22;8350;52.316;10.530;2023-06-24T02:15:26;13.20;99.90
16479;DHT22;8350;52.316;10.530;2023-06-24T02:17:54;13.30;99.90
16479;DHT22;8350;52.316;10.530;2023-06-24T02:20:25;13.30;99.90
16479;DHT22;8350;52.316;10.530;2023-06-24T02:22:56;13.20;99.90
16479;DHT22;8350;52.316;10.530;2023-06-24T02:25:24;13.20;99.90
16479;DHT22;8350;52.316;10.530;2023-06-24T02:27:53;13.10;99.90
16479;DHT22;8350;52.316;10.530;2023-06-24T02:30:22;13.10;99.90
16479;DHT22;8350;52.316;10.530;2023-06-24T02:32:50;13.00;99.90
16479;DHT22;8350;52.316;10.530;2023-06-24T02:35:18;13.00;99.90
16479;DHT22;8350;52.316;10.530;2023-06-24T02:37:46;13.00;99.90
16479;DHT22;8350;52.316;10.530;2023-06-24T02:40:13;13.00;99.90
16479;DHT22;8350;52.316;10.530;2023-06-24T02:42:40;12.90;99.90
16479;DHT22;8350;52.316;10.530;2023-06-24T02:45:08;12.90;99.90
16479;DHT22;8350;52.316;10.530;2023-06-24T02:47:35;13.00;99.90
16479;DHT22;8350;52.316;10.530;2023-06-24T02:50:07;13.00;99.90
16479;DHT22;8350;52.316;10.530;2023-06-24T02:52:35;13.00;99.90
16479;DHT22;8350;52.316;10.530;2023-06-24T02:55:07;13.00;99.90
16479;DHT22;8350;52.316;10.530;2023-06-24T02:57:35;12.90;99.90
16479;DHT22;8350;52.316;10.530;2023-06-24T03:00:03;13.00;99.90
16479;DHT22;8350;52.316;10.530;2023-06-24T03:02:34;13.00;99.90
16479;DHT22;8350;52.316;10.530;2023-06-24T03:05:02;13.00;99.90
16479;DHT22;8350;52.316;10.530;2023-06-24T03:07:30;12.90;99.90
16479;DHT22;8350;52.316;10.530;2023-06-24T03:10:00;12.90;99.90
16479;DHT22;8350;52.316;10.530;2023-06-24T03:12:29;12.90;99.90
16479;DHT22;8350;52.316;10.530;2023-06-24T03:14:56;12.90;99.90
16479;DHT22;8350;52.316;10.530;2023-06-24T03:17:23;12.90;99.90
16479;DHT22;8350;52.316;10.530;2023-06-24T03:19:51;12.90;99.90
16479;DHT22;8350;52.316;10.530;2023-06-24T03:22:18;12.80;99.90
16479;DHT22;8350;52.316;10.530;2023-06-24T03:24:55;12.80;99.90
16479;DHT22;8350;52.316;10.530;2023-06-24T03:27:22;12.80;99.90
16479;DHT22;8350;52.316;10.530;2023-06-24T03:29:51;12.80;99.90
16479;DHT22;8350;52.316;10.530;2023-06-24T03:32:18;12.80;99.90
16479;DHT22;8350;52.316;10.530;2023-06-24T03:34:45;12.90;99.90
16479;DHT22;8350;52.316;10.530;2023-06-24T03:37:12;12.90;99.90
16479;DHT22;8350;52.316;10.530;2023-06-24T03:39:40;12.80;99.90
16479;DHT22;8350;52.316;10.530;2023-06-24T03:42:07;12.80;99.90
16479;DHT22;8350;52.316;10.530;2023-06-24T03:44:34;12.90;99.90
16479;DHT22;8350;52.316;10.530;2023-06-24T03:47:03;12.80;99.90
16479;DHT22;8350;52.316;10.530;2023-06-24T03:49:30;12.80;99.90
16479;DHT22;8350;52.316;10.530;2023-06-24T03:51:57;12.90;99.90
16479;DHT22;8350;52.316;10.530;2023-06-24T03:54:24;12.90;99.90
16479;DHT22;8350;52.316;10.530;2023-06-24T03:56:51;13.00;99.90
16479;DHT22;8350;52.316;10.530;2023-06-24T03:59:18;13.10;99.90
16479;DHT22;8350;52.316;10.530;2023-06-24T04:01:46;13.20;99.90
16479;DHT22;8350;52.316;10.530;2023-06-24T04:04:14;13.20;99.90
16479;DHT22;8350;52.316;10.530;2023-06-24T04:06:42;13.30;99.90
16479;DHT22;8350;52.316;10.530;2023-06-24T04:09:09;13.40;99.90
16479;DHT22;8350;52.316;10.530;2023-06-24T04:11:37;13.40;99.90
16479;DHT22;8350;52.316;10.530;2023-06-24T04:14:04;13.50;99.90
16479;DHT22;8350;52.316;10.530;2023-06-24T04:16:44;14.00;99.90
16479;DHT22;8350;52.316;10.530;2023-06-24T04:19:11;14.90;99.90
16479;DHT22;8350;52.316;10.530;2023-06-24T04:21:40;15.70;99.90
16479;DHT22;8350;52.316;10.530;2023-06-24T04:24:07;16.70;99.90
16479;DHT22;8350;52.316;10.530;2023-06-24T04:26:34;17.40;99.90
16479;DHT22;8350;52.316;10.530;2023-06-24T04:29:01;17.60;99.90
16479;DHT22;8350;52.316;10.530;2023-06-24T04:31:28;17.40;99.90
16479;DHT22;8350;52.316;10.530;2023-06-24T04:33:55;16.90;99.90
16479;DHT22;8350;52.316;10.530;2023-06-24T04:36:22;16.50;99.90
16479;DHT22;8350;52.316;10.530;2023-06-24T04:38:51;16.20;99.90
16479;DHT22;8350;52.316;10.530;2023-06-24T04:41:18;16.00;99.90
16479;DHT22;8350;52.316;10.530;2023-06-24T04:43:45;15.70;99.90
16479;DHT22;8350;52.316;10.530;2023-06-24T04:46:12;15.50;99.90
16479;DHT22;8350;52.316;10.530;2023-06-24T04:48:39;15.30;99.90
16479;DHT22;8350;52.316;10.530;2023-06-24T04:51:06;15.30;99.90
16479;DHT22;8350;52.316;10.530;2023-06-24T04:53:32;15.40;99.90
16479;DHT22;8350;52.316;10.530;2023-06-24T04:56:01;15.70;99.90
16479;DHT22;8350;52.316;10.530;2023-06-24T04:58:28;16.30;99.90
16479;DHT22;8350;52.316;10.530;2023-06-24T05:00:55;16.90;99.90
16479;DHT22;8350;52.316;10.530;2023-06-24T05:03:22;17.70;99.90
16479;DHT22;8350;52.316;10.530;2023-06-24T05:05:49;18.60;99.90
16479;DHT22;8350;52.316;10.530;2023-06-24T05:08:16;19.40;95.90
16479;DHT22;8350;52.316;10.530;2023-06-24T05:10:43;20.30;1.00
16479;DHT22;8350;52.316;10.530;2023-06-24T05:13:11;21.00;1.00
16479;DHT22;8350;52.316;10.530;2023-06-24T05:15:38;21.70;1.00
16479;DHT22;8350;52.316;10.530;2023-06-24T05:18:05;22.20;1.00
16479;DHT22;8350;52.316;10.530;2023-06-24T05:20:34;22.60;1.00
16479;DHT22;8350;52.316;10.530;2023-06-24T05:23:01;23.00;99.90
16479;DHT22;8350;52.316;10.530;2023-06-24T05:25:28;23.40;99.90
16479;DHT22;8350;52.316;10.530;2023-06-24T05:27:56;23.60;99.90
16479;DHT22;8350;52.316;10.530;2023-06-24T05:30:24;23.90;99.90
16479;DHT22;8350;52.316;10.530;2023-06-24T05:32:51;23.90;64.80
16479;DHT22;8350;52.316;10.530;2023-06-24T05:35:18;23.90;99.90
16479;DHT22;8350;52.316;10.530;2023-06-24T05:37:45;23.90;99.90
16479;DHT22;8350;52.316;10.530;2023-06-24T05:40:12;23.90;99.90
16479;DHT22;8350;52.316;10.530;2023-06-24T05:42:39;23.90;10.30
16479;DHT22;8350;52.316;10.530;2023-06-24T05:45:07;23.90;10.40
16479;DHT22;8350;52.316;10.530;2023-06-24T05:47:36;23.60;99.90
16479;DHT22;8350;52.316;10.530;2023-06-24T05:50:04;23.70;99.90
16479;DHT22;8350;52.316;10.530;2023-06-24T05:52:31;23.70;99.90
16479;DHT22;8350;52.316;10.530;2023-06-24T05:54:58;23.20;1.00
16479;DHT22;8350;52.316;10.530;2023-06-24T05:57:24;23.10;1.00
16479;DHT22;8350;52.316;10.530;2023-06-24T05:59:51;23.20;1.00
16479;DHT22;8350;52.316;10.530;2023-06-24T06:02:18;23.30;1.00
16479;DHT22;8350;52.316;10.530;2023-06-24T06:04:47;22.80;1.00
16479;DHT22;8350;52.316;10.530;2023-06-24T06:07:14;23.00;1.00
16479;DHT22;8350;52.316;10.530;2023-06-24T06:09:42;22.30;1.00
16479;DHT22;8350;52.316;10.530;2023-06-24T06:12:10;21.70;1.00
16479;DHT22;8350;52.316;10.530;2023-06-24T06:14:37;21.40;1.00
16479;DHT22;8350;52.316;10.530;2023-06-24T06:17:07;21.00;1.00
16479;DHT22;8350;52.316;10.530;2023-06-24T06:19:34;21.20;1.00
16479;DHT22;8350;52.316;10.530;2023-06-24T06:22:02;21.40;1.00
16479;DHT22;8350;52.316;10.530;2023-06-24T06:24:29;21.80;1.00
16479;DHT22;8350;52.316;10.530;2023-06-24T06:26:59;22.00;1.00
16479;DHT22;8350;52.316;10.530;2023-06-24T06:29:26;21.90;1.00
16479;DHT22;8350;52.316;10.530;2023-06-24T06:31:53;21.90;1.00
16479;DHT22;8350;52.316;10.530;2023-06-24T06:34:22;21.70;1.00
16479;DHT22;8350;52.316;10.530;2023-06-24T06:36:49;21.60;1.00
16479;DHT22;8350;52.316;10.530;2023-06-24T06:39:18;21.20;1.00
16479;DHT22;8350;52.316;10.530;2023-06-24T06:41:44;21.30;1.00
16479;DHT22;8350;52.316;10.530;2023-06-24T06:44:11;21.30;99.90
16479;DHT22;8350;52.316;10.530;2023-06-24T06:46:38;21.70;99.90
16479;DHT22;8350;52.316;10.530;2023-06-24T06:49:06;21.90;1.00
16479;DHT22;8350;52.316;10.530;2023-06-24T06:51:32;21.80;99.90
16479;DHT22;8350;52.316;10.530;2023-06-24T06:54:00;22.00;1.00
16479;DHT22;8350;52.316;10.530;2023-06-24T06:56:28;22.10;1.00
16479;DHT22;8350;52.316;10.530;2023-06-24T06:58:55;22.40;1.00
16479;DHT22;8350;52.316;10.530;2023-06-24T07:01:22;22.50;1.00
16479;DHT22;8350;52.316;10.530;2023-06-24T07:03:51;22.60;1.00
16479;DHT22;8350;52.316;10.530;2023-06-24T07:06:18;22.50;1.00
16479;DHT22;8350;52.316;10.530;2023-06-24T07:08:46;22.50;1.00
16479;DHT22;8350;52.316;10.530;2023-06-24T07:11:13;22.50;1.00
16479;DHT22;8350;52.316;10.530;2023-06-24T07:13:41;22.50;1.00
16479;DHT22;8350;52.316;10.530;2023-06-24T07:16:08;22.60;1.00
16479;DHT22;8350;52.316;10.530;2023-06-24T07:18:35;22.80;1.00
16479;DHT22;8350;52.316;10.530;2023-06-24T07:21:02;22.60;1.00
16479;DHT22;8350;52.316;10.530;2023-06-24T07:23:29;22.40;1.00
16479;DHT22;8350;52.316;10.530;2023-06-24T07:25:56;22.80;1.00
16479;DHT22;8350;52.316;10.530;2023-06-24T07:28:23;23.00;1.00
16479;DHT22;8350;52.316;10.530;2023-06-24T07:30:52;23.30;1.00
16479;DHT22;8350;52.316;10.530;2023-06-24T07:33:21;23.30;1.00
16479;DHT22;8350;52.316;10.530;2023-06-24T07:35:48;23.10;1.00
16479;DHT22;8350;52.316;10.530;2023-06-24T07:38:15;23.00;1.00
16479;DHT22;8350;52.316;10.530;2023-06-24T07:40:42;23.00;1.00
16479;DHT22;8350;52.316;10.530;2023-06-24T07:43:09;23.40;1.00
16479;DHT22;8350;52.316;10.530;2023-06-24T07:45:36;23.40;1.00
16479;DHT22;8350;52.316;10.530;2023-06-24T07:48:05;23.40;99.90
16479;DHT22;8350;52.316;10.530;2023-06-24T07:50:33;22.70;99.90
16479;DHT22;8350;52.316;10.530;2023-06-24T07:53:01;22.20;99.90
16479;DHT22;8350;52.316;10.530;2023-06-24T07:55:28;22.10;1.00
16479;DHT22;8350;52.316;10.530;2023-06-24T07:57:55;22.20;1.00
16479;DHT22;8350;52.316;10.530;2023-06-24T08:00:24;22.50;1.00
16479;DHT22;8350;52.316;10.530;2023-06-24T08:02:51;22.60;1.00
16479;DHT22;8350;52.316;10.530;2023-06-24T08:05:20;22.90;1.00
16479;DHT22;8350;52.316;10.530;2023-06-24T08:07:50;23.10;99.90
16479;DHT22;8350;52.316;10.530;2023-06-24T08:10:17;23.20;99.90
16479;DHT22;8350;52.316;10.530;2023-06-24T08:12:44;23.40;99.90
16479;DHT22;8350;52.316;10.530;2023-06-24T08:15:12;23.40;99.90
16479;DHT22;8350;52.316;10.530;2023-06-24T08:17:39;23.00;99.90
16479;DHT22;8350;52.316;10.530;2023-06-24T08:20:07;22.80;1.00
16479;DHT22;8350;52.316;10.530;2023-06-24T08:22:36;23.00;1.00
16479;DHT22;8350;52.316;10.530;2023-06-24T08:25:03;23.20;1.00
16479;DHT22;8350;52.316;10.530;2023-06-24T08:27:30;23.40;1.00
16479;DHT22;8350;52.316;10.530;2023-06-24T08:29:57;23.60;1.00
16479;DHT22;8350;52.316;10.530;2023-06-24T08:32:24;23.40;99.90
16479;DHT22;8350;52.316;10.530;2023-06-24T08:34:51;23.80;99.90
16479;DHT22;8350;52.316;10.530;2023-06-24T08:37:18;24.10;99.90
16479;DHT22;8350;52.316;10.530;2023-06-24T08:39:46;24.20;98.60
16479;DHT22;8350;52.316;10.530;2023-06-24T08:42:13;24.20;99.90
16479;DHT22;8350;52.316;10.530;2023-06-24T08:44:41;24.70;1.00
16479;DHT22;8350;52.316;10.530;2023-06-24T08:47:08;25.10;1.00
16479;DHT22;8350;52.316;10.530;2023-06-24T08:49:40;25.30;1.00
16479;DHT22;8350;52.316;10.530;2023-06-24T08:52:14;25.20;99.90
16479;DHT22;8350;52.316;10.530;2023-06-24T08:54:49;25.20;1.00
16479;DHT22;8350;52.316;10.530;2023-06-24T08:57:16;25.20;1.00
16479;DHT22;8350;52.316;10.530;2023-06-24T08:59:44;24.80;1.00
16479;DHT22;8350;52.316;10.530;2023-06-24T09:02:11;24.90;1.00
16479;DHT22;8350;52.316;10.530;2023-06-24T09:04:39;25.00;1.00
16479;DHT22;8350;52.316;10.530;2023-06-24T09:07:06;24.80;1.00
16479;DHT22;8350;52.316;10.530;2023-06-24T09:09:42;24.70;99.90
16479;DHT22;8350;52.316;10.530;2023-06-24T09:12:14;24.90;1.00
16479;DHT22;8350;52.316;10.530;2023-06-24T09:14:41;24.90;99.90
16479;DHT22;8350;52.316;10.530;2023-06-24T09:17:14;24.70;1.00
16479;DHT22;8350;52.316;10.530;2023-06-24T09:19:41;24.80;1.00
16479;DHT22;8350;52.316;10.530;2023-06-24T09:22:09;25.20;75.50
16479;DHT22;8350;52.316;10.530;2023-06-24T09:24:42;25.50;1.00
16479;DHT22;8350;52.316;10.530;2023-06-24T09:27:12;25.80;99.90
16479;DHT22;8350;52.316;10.530;2023-06-24T09:29:40;25.90;99.90
16479;DHT22;8350;52.316;10.530;2023-06-24T09:32:08;25.90;1.00
16479;DHT22;8350;52.316;10.530;2023-06-24T09:34:35;25.90;35.80
16479;DHT22;8350;52.316;10.530;2023-06-24T09:37:02;25.60;99.90
16479;DHT22;8350;52.316;10.530;2023-06-24T09:39:35;24.90;99.90
16479;DHT22;8350;52.316;10.530;2023-06-24T09:42:07;24.80;99.90
16479;DHT22;8350;52.316;10.530;2023-06-24T09:44:35;25.20;1.00
16479;DHT22;8350;52.316;10.530;2023-06-24T09:47:03;25.70;99.90
16479;DHT22;8350;52.316;10.530;2023-06-24T09:49:30;25.60;99.90
16479;DHT22;8350;52.316;10.530;2023-06-24T09:51:58;26.00;49.70
16479;DHT22;8350;52.316;10.530;2023-06-24T09:54:26;26.40;99.90
16479;DHT22;8350;52.316;10.530;2023-06-24T09:56:57;26.30;1.00
16479;DHT22;8350;52.316;10.530;2023-06-24T09:59:27;26.50;99.90
16479;DHT22;8350;52.316;10.530;2023-06-24T10:01:56;27.00;98.50
16479;DHT22;8350;52.316;10.530;2023-06-24T10:04:23;27.40;1.00
16479;DHT22;8350;52.316;10.530;2023-06-24T10:06:51;27.30;1.00
16479;DHT22;8350;52.316;10.530;2023-06-24T10:09:18;27.30;99.90
16479;DHT22;8350;52.316;10.530;2023-06-24T10:11:49;27.40;99.90
16479;DHT22;8350;52.316;10.530;2023-06-24T10:14:16;27.20;99.90
16479;DHT22;8350;52.316;10.530;2023-06-24T10:16:45;26.90;99.90
16479;DHT22;8350;52.316;10.530;2023-06-24T10:19:19;26.90;99.90
16479;DHT22;8350;52.316;10.530;2023-06-24T10:21:52;26.90;99.90
16479;DHT22;8350;52.316;10.530;2023-06-24T10:24:29;27.10;1.00
16479;DHT22;8350;52.316;10.530;2023-06-24T10:27:02;27.40;99.90
16479;DHT22;8350;52.316;10.530;2023-06-24T10:29:33;27.30;1.00
16479;DHT22;8350;52.316;10.530;2023-06-24T10:32:07;26.60;1.00
16479;DHT22;8350;52.316;10.530;2023-06-24T10:34:39;27.00;1.00
16479;DHT22;8350;52.316;10.530;2023-06-24T10:37:09;26.20;1.00
16479;DHT22;8350;52.316;10.530;2023-06-24T10:39:38;25.80;1.00
16479;DHT22;8350;52.316;10.530;2023-06-24T10:45:18;26.10;1.00
16479;DHT22;8350;52.316;10.530;2023-06-24T10:47:47;26.20;99.90
16479;DHT22;8350;52.316;10.530;2023-06-24T10:50:21;26.30;1.00
16479;DHT22;8350;52.316;10.530;2023-06-24T10:52:50;26.70;1.00
16479;DHT22;8350;52.316;10.530;2023-06-24T10:55:22;27.00;1.00
16479;DHT22;8350;52.316;10.530;2023-06-24T10:57:50;26.90;1.00
16479;DHT22;8350;52.316;10.530;2023-06-24T11:00:17;26.70;99.90
16479;DHT22;8350;52.316;10.530;2023-06-24T11:02:48;26.30;99.90
16479;DHT22;8350;52.316;10.530;2023-06-24T11:05:16;26.70;1.00
16479;DHT22;8350;52.316;10.530;2023-06-24T11:07:44;26.70;99.90
16479;DHT22;8350;52.316;10.530;2023-06-24T11:10:12;26.60;99.90
16479;DHT22;8350;52.316;10.530;2023-06-24T11:12:40;26.00;1.00
16479;DHT22;8350;52.316;10.530;2023-06-24T11:15:11;25.80;99.90
16479;DHT22;8350;52.316;10.530;2023-06-24T11:17:39;26.10;1.00
16479;DHT22;8350;52.316;10.530;2023-06-24T11:20:07;26.30;99.90
16479;DHT22;8350;52.316;10.530;2023-06-24T11:22:35;26.40;1.00
16479;DHT22;8350;52.316;10.530;2023-06-24T11:25:04;26.60;1.00
16479;DHT22;8350;52.316;10.530;2023-06-24T11:27:31;26.50;99.90
16479;DHT22;8350;52.316;10.530;2023-06-24T11:30:00;26.40;99.90
16479;DHT22;8350;52.316;10.530;2023-06-24T11:32:35;26.70;1.00
16479;DHT22;8350;52.316;10.530;2023-06-24T11:35:03;26.80;99.90
16479;DHT22;8350;52.316;10.530;2023-06-24T11:37:31;26.90;1.00
16479;DHT22;8350;52.316;10.530;2023-06-24T11:40:04;27.00;99.90
16479;DHT22;8350;52.316;10.530;2023-06-24T11:42:31;27.20;1.00
16479;DHT22;8350;52.316;10.530;2023-06-24T11:45:02;27.50;1.00
16479;DHT22;8350;52.316;10.530;2023-06-24T11:47:32;28.00;1.00
16479;DHT22;8350;52.316;10.530;2023-06-24T11:50:00;27.50;99.90
16479;DHT22;8350;52.316;10.530;2023-06-24T11:52:37;27.10;1.00
16479;DHT22;8350;52.316;10.530;2023-06-24T11:55:11;27.60;99.90
16479;DHT22;8350;52.316;10.530;2023-06-24T11:57:50;27.60;99.90
16479;DHT22;8350;52.316;10.530;2023-06-24T12:00:20;28.00;1.00
16479;DHT22;8350;52.316;10.530;2023-06-24T12:02:57;28.10;99.90
16479;DHT22;8350;52.316;10.530;2023-06-24T12:05:25;28.00;1.00
16479;DHT22;8350;52.316;10.530;2023-06-24T12:07:57;27.80;1.00
16479;DHT22;8350;52.316;10.530;2023-06-24T12:10:26;28.30;1.00
16479;DHT22;8350;52.316;10.530;2023-06-24T12:12:55;28.40;1.00
16479;DHT22;8350;52.316;10.530;2023-06-24T12:15:22;28.30;99.90
16479;DHT22;8350;52.316;10.530;2023-06-24T12:17:49;28.00;1.00
16479;DHT22;8350;52.316;10.530;2023-06-24T12:20:17;28.00;1.00
16479;DHT22;8350;52.316;10.530;2023-06-24T12:22:44;27.60;1.00
16479;DHT22;8350;52.316;10.530;2023-06-24T12:25:11;27.60;1.00
16479;DHT22;8350;52.316;10.530;2023-06-24T12:27:41;28.00;99.90
16479;DHT22;8350;52.316;10.530;2023-06-24T12:30:09;27.80;1.00
16479;DHT22;8350;52.316;10.530;2023-06-24T12:32:37;27.70;1.00
16479;DHT22;8350;52.316;10.530;2023-06-24T12:35:05;27.60;1.00
16479;DHT22;8350;52.316;10.530;2023-06-24T12:37:37;27.70;1.00
16479;DHT22;8350;52.316;10.530;2023-06-24T12:40:05;27.90;1.00
16479;DHT22;8350;52.316;10.530;2023-06-24T12:42:32;27.90;1.00
16479;DHT22;8350;52.316;10.530;2023-06-24T12:45:00;27.80;1.00
16479;DHT22;8350;52.316;10.530;2023-06-24T12:47:27;27.90;1.00
16479;DHT22;8350;52.316;10.530;2023-06-24T12:49:54;27.80;49.00
16479;DHT22;8350;52.316;10.530;2023-06-24T12:52:25;27.90;1.00
16479;DHT22;8350;52.316;10.530;2023-06-24T12:54:52;27.90;53.40
16479;DHT22;8350;52.316;10.530;2023-06-24T12:57:22;28.00;1.00
16479;DHT22;8350;52.316;10.530;2023-06-24T12:59:49;27.90;1.00
16479;DHT22;8350;52.316;10.530;2023-06-24T13:02:17;28.00;99.90
16479;DHT22;8350;52.316;10.530;2023-06-24T13:04:46;28.40;99.90
16479;DHT22;8350;52.316;10.530;2023-06-24T13:07:14;28.50;99.90
16479;DHT22;8350;52.316;10.530;2023-06-24T13:09:41;28.60;1.00
16479;DHT22;8350;52.316;10.530;2023-06-24T13:12:08;28.40;1.00
16479;DHT22;8350;52.316;10.530;2023-06-24T13:14:35;28.20;1.00
16479;DHT22;8350;52.316;10.530;2023-06-24T13:17:02;28.10;99.90
16479;DHT22;8350;52.316;10.530;2023-06-24T13:19:31;28.40;1.00
16479;DHT22;8350;52.316;10.530;2023-06-24T13:21:58;28.60;1.00
16479;DHT22;8350;52.316;10.530;2023-06-24T13:24:25;28.90;1.00
16479;DHT22;8350;52.316;10.530;2023-06-24T13:26:52;28.90;99.90
16479;DHT22;8350;52.316;10.530;2023-06-24T13:29:19;28.90;99.90
16479;DHT22;8350;52.316;10.530;2023-06-24T13:31:46;29.00;38.80
16479;DHT22;8350;52.316;10.530;2023-06-24T13:34:13;28.90;1.00
16479;DHT22;8350;52.316;10.530;2023-06-24T13:36:53;28.50;1.00
16479;DHT22;8350;52.316;10.530;2023-06-24T13:39:20;28.10;1.00
16479;DHT22;8350;52.316;10.530;2023-06-24T13:41:49;27.80;1.00
16479;DHT22;8350;52.316;10.530;2023-06-24T13:44:18;27.90;99.90
16479;DHT22;8350;52.316;10.530;2023-06-24T13:46:45;28.10;99.90
16479;DHT22;8350;52.316;10.530;2023-06-24T13:49:12;28.30;99.90
16479;DHT22;8350;52.316;10.530;2023-06-24T13:51:39;28.50;91.30
16479;DHT22;8350;52.316;10.530;2023-06-24T13:54:08;28.60;1.00
16479;DHT22;8350;52.316;10.530;2023-06-24T13:56:35;28.60;1.00
16479;DHT22;8350;52.316;10.530;2023-06-24T13:59:06;28.50;97.90
16479;DHT22;8350;52.316;10.530;2023-06-24T14:01:36;28.70;1.00
16479;DHT22;8350;52.316;10.530;2023-06-24T14:04:03;28.00;1.00
16479;DHT22;8350;52.316;10.530;2023-06-24T14:06:30;27.80;1.00
16479;DHT22;8350;52.316;10.530;2023-06-24T14:08:57;27.80;99.90
16479;DHT22;8350;52.316;10.530;2023-06-24T14:11:25;27.60;1.00
16479;DHT22;8350;52.316;10.530;2023-06-24T14:13:52;27.40;1.00
16479;DHT22;8350;52.316;10.530;2023-06-24T14:16:19;27.10;26.20
16479;DHT22;8350;52.316;10.530;2023-06-24T14:18:46;27.00;1.00
16479;DHT22;8350;52.316;10.530;2023-06-24T14:21:13;27.30;1.00
16479;DHT22;8350;52.316;10.530;2023-06-24T14:23:40;27.60;99.90
16479;DHT22;8350;52.316;10.530;2023-06-24T14:26:07;27.40;1.00
16479;DHT22;8350;52.316;10.530;2023-06-24T14:28:36;27.50;1.00
16479;DHT22;8350;52.316;10.530;2023-06-24T14:31:03;27.60;1.00
16479;DHT22;8350;52.316;10.530;2023-06-24T14:33:33;27.50;1.00
16479;DHT22;8350;52.316;10.530;2023-06-24T14:36:12;27.30;1.00
16479;DHT22;8350;52.316;10.530;2023-06-24T14:38:39;27.50;99.90
16479;DHT22;8350;52.316;10.530;2023-06-24T14:41:06;27.50;1.00
16479;DHT22;8350;52.316;10.530;2023-06-24T14:43:35;27.40;1.00
16479;DHT22;8350;52.316;10.530;2023-06-24T14:46:02;27.00;1.00
16479;DHT22;8350;52.316;10.530;2023-06-24T14:48:29;26.90;1.00
16479;DHT22;8350;52.316;10.530;2023-06-24T14:50:56;26.80;10.90
16479;DHT22;8350;52.316;10.530;2023-06-24T14:53:23;26.70;92.00
16479;DHT22;8350;52.316;10.530;2023-06-24T14:55:50;26.80;1.00
16479;DHT22;8350;52.316;10.530;2023-06-24T15:01:28;26.50;66.30
16479;DHT22;8350;52.316;10.530;2023-06-24T15:03:55;26.50;1.00
16479;DHT22;8350;52.316;10.530;2023-06-24T15:06:22;26.50;1.00
16479;DHT22;8350;52.316;10.530;2023-06-24T15:08:49;26.60;1.00
16479;DHT22;8350;52.316;10.530;2023-06-24T15:11:16;26.80;1.00
16479;DHT22;8350;52.316;10.530;2023-06-24T15:13:43;27.00;1.00
16479;DHT22;8350;52.316;10.530;2023-06-24T15:16:10;27.00;99.90
16479;DHT22;8350;52.316;10.530;2023-06-24T15:18:46;27.00;99.90
16479;DHT22;8350;52.316;10.530;2023-06-24T15:21:13;27.00;1.00
16479;DHT22;8350;52.316;10.530;2023-06-24T15:23:40;27.10;99.90
16479;DHT22;8350;52.316;10.530;2023-06-24T15:26:07;27.50;99.90
16479;DHT22;8350;52.316;10.530;2023-06-24T15:28:34;27.80;1.00
16479;DHT22;8350;52.316;10.530;2023-06-24T15:31:01;27.80;1.00
16479;DHT22;8350;52.316;10.530;2023-06-24T15:33:28;27.70;99.90
16479;DHT22;8350;52.316;10.530;2023-06-24T15:35:56;27.70;99.90
16479;DHT22;8350;52.316;10.530;2023-06-24T15:38:25;27.60;99.90
16479;DHT22;8350;52.316;10.530;2023-06-24T15:40:52;27.50;99.90
16479;DHT22;8350;52.316;10.530;2023-06-24T15:43:19;27.40;99.90
16479;DHT22;8350;52.316;10.530;2023-06-24T15:45:46;27.30;99.90
16479;DHT22;8350;52.316;10.530;2023-06-24T15:48:15;27.20;1.00
16479;DHT22;8350;52.316;10.530;2023-06-24T15:50:43;27.10;99.90
16479;DHT22;8350;52.316;10.530;2023-06-24T15:53:11;27.10;99.90